sensor_id;sensor_type;location;lat;lon;timestamp;temperature;humidity
38726;DHT22;24474;48.906;8.808;2023-02-28T00:01:07;-0.90;99.90
38726;DHT22;24474;48.906;8.808;2023-02-28T00:03:33;-0.90;99.90
38726;DHT22;24474;48.906;8.808;2023-02-28T00:06:05;-0.90;99.90
38726;DHT22;24474;48.906;8.808;2023-02-28T00:08:32;-1.00;99.90
38726;DHT22;24474;48.906;8.808;2023-02-28T00:11:02;-1.00;99.90
38726;DHT22;24474;48.906;8.808;2023-02-28T00:13:30;-1.00;99.90
38726;DHT22;24474;48.906;8.808;2023-02-28T00:16:04;-1.00;99.90
38726;DHT22;24474;48.906;8.808;2023-02-28T00:18:31;-1.00;99.90
38726;DHT22;24474;48.906;8.808;2023-02-28T00:20:57;-1.00;99.90
38726;DHT22;24474;48.906;8.808;2023-02-28T00:23:24;-1.10;99.90
38726;DHT22;24474;48.906;8.808;2023-02-28T00:25:51;-1.10;99.90
38726;DHT22;24474;48.906;8.808;2023-02-28T00:28:17;-1.10;99.90
38726;DHT22;24474;48.906;8.808;2023-02-28T00:30:43;-1.10;99.90
38726;DHT22;24474;48.906;8.808;2023-02-28T00:33:10;-1.10;99.90
38726;DHT22;24474;48.906;8.808;2023-02-28T00:35:37;-1.10;99.90
38726;DHT22;24474;48.906;8.808;2023-02-28T00:38:04;-1.10;99.90
38726;DHT22;24474;48.906;8.808;2023-02-28T00:40:31;-1.10;99.90
38726;DHT22;24474;48.906;8.808;2023-02-28T00:42:57;-1.10;99.90
38726;DHT22;24474;48.906;8.808;2023-02-28T00:45:24;-1.10;99.90
38726;DHT22;24474;48.906;8.808;2023-02-28T00:47:49;-1.10;99.90
38726;DHT22;24474;48.906;8.808;2023-02-28T00:50:24;-1.20;99.90
38726;DHT22;24474;48.906;8.808;2023-02-28T00:52:51;-1.20;99.90
38726;DHT22;24474;48.906;8.808;2023-02-28T00:55:18;-1.20;99.90
38726;DHT22;24474;48.906;8.808;2023-02-28T00:57:45;-1.20;99.90
38726;DHT22;24474;48.906;8.808;2023-02-28T01:00:11;-1.20;99.90
38726;DHT22;24474;48.906;8.808;2023-02-28T01:02:39;-1.30;99.90
38726;DHT22;24474;48.906;8.808;2023-02-28T01:05:05;-1.20;99.90
38726;DHT22;24474;48.906;8.808;2023-02-28T01:07:31;-1.30;99.90
38726;DHT22;24474;48.906;8.808;2023-02-28T01:09:58;-1.30;99.90
38726;DHT22;24474;48.906;8.808;2023-02-28T01:12:24;-1.30;99.90
38726;DHT22;24474;48.906;8.808;2023-02-28T01:14:50;-1.40;99.90
38726;DHT22;24474;48.906;8.808;2023-02-28T01:17:17;-1.40;99.90
38726;DHT22;24474;48.906;8.808;2023-02-28T01:19:44;-1.40;99.90
38726;DHT22;24474;48.906;8.808;2023-02-28T01:22:10;-1.40;99.90
38726;DHT22;24474;48.906;8.808;2023-02-28T01:24:40;-1.40;99.90
38726;DHT22;24474;48.906;8.808;2023-02-28T01:27:05;-1.40;99.90
38726;DHT22;24474;48.906;8.808;2023-02-28T01:29:32;-1.50;99.90
38726;DHT22;24474;48.906;8.808;2023-02-28T01:31:59;-1.40;99.90
38726;DHT22;24474;48.906;8.808;2023-02-28T01:34:26;-1.40;99.90
38726;DHT22;24474;48.906;8.808;2023-02-28T01:36:51;-1.40;99.90
38726;DHT22;24474;48.906;8.808;2023-02-28T01:39:20;-1.50;99.90
38726;DHT22;24474;48.906;8.808;2023-02-28T01:41:46;-1.40;99.90
38726;DHT22;24474;48.906;8.808;2023-02-28T01:47:18;-1.50;99.90
38726;DHT22;24474;48.906;8.808;2023-02-28T01:49:47;-1.50;99.90
38726;DHT22;24474;48.906;8.808;2023-02-28T01:52:14;-1.50;99.90
38726;DHT22;24474;48.906;8.808;2023-02-28T01:54:51;-1.50;99.90
38726;DHT22;24474;48.906;8.808;2023-02-28T01:57:23;-1.50;99.90
38726;DHT22;24474;48.906;8.808;2023-02-28T02:00:01;-1.50;99.90
38726;DHT22;24474;48.906;8.808;2023-02-28T02:02:35;-1.50;99.90
38726;DHT22;24474;48.906;8.808;2023-02-28T02:05:07;-1.50;99.90
38726;DHT22;24474;48.906;8.808;2023-02-28T02:07:37;-1.60;99.90
38726;DHT22;24474;48.906;8.808;2023-02-28T02:10:21;-1.50;99.90
38726;DHT22;24474;48.906;8.808;2023-02-28T02:16:23;-1.60;99.90
38726;DHT22;24474;48.906;8.808;2023-02-28T02:40:20;-1.70;99.90
38726;DHT22;24474;48.906;8.808;2023-02-28T02:45:42;-1.70;99.90
38726;DHT22;24474;48.906;8.808;2023-02-28T02:48:15;-1.70;99.90
38726;DHT22;24474;48.906;8.808;2023-02-28T02:50:58;-1.70;99.90
38726;DHT22;24474;48.906;8.808;2023-02-28T02:53:34;-1.70;99.90
38726;DHT22;24474;48.906;8.808;2023-02-28T02:56:03;-1.70;99.90
38726;DHT22;24474;48.906;8.808;2023-02-28T02:58:35;-1.80;99.90
38726;DHT22;24474;48.906;8.808;2023-02-28T03:01:12;-1.70;99.90
38726;DHT22;24474;48.906;8.808;2023-02-28T03:04:09;-1.70;99.90
38726;DHT22;24474;48.906;8.808;2023-02-28T03:06:37;-1.70;99.90
38726;DHT22;24474;48.906;8.808;2023-02-28T03:09:03;-1.70;99.90
38726;DHT22;24474;48.906;8.808;2023-02-28T03:11:31;-1.70;99.90
38726;DHT22;24474;48.906;8.808;2023-02-28T03:14:07;-1.70;99.90
38726;DHT22;24474;48.906;8.808;2023-02-28T03:27:24;-1.60;99.90
38726;DHT22;24474;48.906;8.808;2023-02-28T03:30:06;-1.60;99.90
38726;DHT22;24474;48.906;8.808;2023-02-28T03:32:54;-1.70;99.90
38726;DHT22;24474;48.906;8.808;2023-02-28T03:35:52;-1.70;99.90
38726;DHT22;24474;48.906;8.808;2023-02-28T03:38:33;-1.70;99.90
38726;DHT22;24474;48.906;8.808;2023-02-28T03:41:18;-1.60;99.90
38726;DHT22;24474;48.906;8.808;2023-02-28T03:43:58;-1.60;99.90
38726;DHT22;24474;48.906;8.808;2023-02-28T03:46:32;-1.60;99.90
38726;DHT22;24474;48.906;8.808;2023-02-28T03:49:31;-1.70;99.90
38726;DHT22;24474;48.906;8.808;2023-02-28T03:52:00;-1.60;99.90
38726;DHT22;24474;48.906;8.808;2023-02-28T03:54:34;-1.60;99.90
38726;DHT22;24474;48.906;8.808;2023-02-28T03:57:57;-1.60;99.90
38726;DHT22;24474;48.906;8.808;2023-02-28T04:00:25;-1.60;99.90
38726;DHT22;24474;48.906;8.808;2023-02-28T04:02:54;-1.60;99.90
38726;DHT22;24474;48.906;8.808;2023-02-28T04:05:22;-1.60;99.90
38726;DHT22;24474;48.906;8.808;2023-02-28T04:07:48;-1.60;99.90
38726;DHT22;24474;48.906;8.808;2023-02-28T04:10:16;-1.60;99.90
38726;DHT22;24474;48.906;8.808;2023-02-28T04:12:43;-1.60;99.90
38726;DHT22;24474;48.906;8.808;2023-02-28T04:15:09;-1.60;99.90
38726;DHT22;24474;48.906;8.808;2023-02-28T04:17:37;-1.60;99.90
38726;DHT22;24474;48.906;8.808;2023-02-28T04:20:03;-1.60;99.90
38726;DHT22;24474;48.906;8.808;2023-02-28T04:22:30;-1.60;99.90
38726;DHT22;24474;48.906;8.808;2023-02-28T04:24:56;-1.60;99.90
38726;DHT22;24474;48.906;8.808;2023-02-28T04:27:23;-1.60;99.90
38726;DHT22;24474;48.906;8.808;2023-02-28T04:29:50;-1.60;99.90
38726;DHT22;24474;48.906;8.808;2023-02-28T04:32:16;-1.60;99.90
38726;DHT22;24474;48.906;8.808;2023-02-28T04:34:44;-1.60;99.90
38726;DHT22;24474;48.906;8.808;2023-02-28T04:37:10;-1.60;99.90
38726;DHT22;24474;48.906;8.808;2023-02-28T04:39:37;-1.60;99.90
38726;DHT22;24474;48.906;8.808;2023-02-28T04:42:04;-1.60;99.90
38726;DHT22;24474;48.906;8.808;2023-02-28T04:44:31;-1.70;99.90
38726;DHT22;24474;48.906;8.808;2023-02-28T04:46:59;-1.60;99.90
38726;DHT22;24474;48.906;8.808;2023-02-28T04:49:24;-1.60;99.90
38726;DHT22;24474;48.906;8.808;2023-02-28T04:51:51;-1.60;99.90
38726;DHT22;24474;48.906;8.808;2023-02-28T04:54:18;-1.70;99.90
38726;DHT22;24474;48.906;8.808;2023-02-28T04:56:45;-1.60;99.90
38726;DHT22;24474;48.906;8.808;2023-02-28T04:59:10;-1.70;99.90
38726;DHT22;24474;48.906;8.808;2023-02-28T05:01:37;-1.60;99.90
38726;DHT22;24474;48.906;8.808;2023-02-28T05:04:04;-1.60;99.90
38726;DHT22;24474;48.906;8.808;2023-02-28T05:06:32;-1.60;99.90
38726;DHT22;24474;48.906;8.808;2023-02-28T05:09:00;-1.60;99.90
38726;DHT22;24474;48.906;8.808;2023-02-28T05:11:29;-1.60;99.90
38726;DHT22;24474;48.906;8.808;2023-02-28T05:14:01;-1.60;99.90
38726;DHT22;24474;48.906;8.808;2023-02-28T05:16:29;-1.60;99.90
38726;DHT22;24474;48.906;8.808;2023-02-28T05:18:55;-1.60;99.90
38726;DHT22;24474;48.906;8.808;2023-02-28T05:21:30;-1.60;99.90
38726;DHT22;24474;48.906;8.808;2023-02-28T05:24:18;-1.60;99.90
38726;DHT22;24474;48.906;8.808;2023-02-28T05:26:54;-1.60;99.90
38726;DHT22;24474;48.906;8.808;2023-02-28T05:29:31;-1.60;99.90
38726;DHT22;24474;48.906;8.808;2023-02-28T05:31:57;-1.60;99.90
38726;DHT22;24474;48.906;8.808;2023-02-28T05:34:24;-1.60;99.90
38726;DHT22;24474;48.906;8.808;2023-02-28T05:36:51;-1.60;99.90
38726;DHT22;24474;48.906;8.808;2023-02-28T05:39:17;-1.50;99.90
38726;DHT22;24474;48.906;8.808;2023-02-28T05:41:43;-1.60;99.90
38726;DHT22;24474;48.906;8.808;2023-02-28T05:44:09;-1.60;99.90
38726;DHT22;24474;48.906;8.808;2023-02-28T05:46:42;-1.50;99.90
38726;DHT22;24474;48.906;8.808;2023-02-28T05:49:07;-1.50;99.90
38726;DHT22;24474;48.906;8.808;2023-02-28T05:51:34;-1.50;99.90
38726;DHT22;24474;48.906;8.808;2023-02-28T05:54:30;-1.50;99.90
38726;DHT22;24474;48.906;8.808;2023-02-28T05:56:59;-1.50;99.90
38726;DHT22;24474;48.906;8.808;2023-02-28T05:59:28;-1.50;99.90
38726;DHT22;24474;48.906;8.808;2023-02-28T06:01:55;-1.50;99.90
38726;DHT22;24474;48.906;8.808;2023-02-28T06:04:23;-1.50;99.90
38726;DHT22;24474;48.906;8.808;2023-02-28T06:06:49;-1.50;99.90
38726;DHT22;24474;48.906;8.808;2023-02-28T06:09:17;-1.50;99.90
38726;DHT22;24474;48.906;8.808;2023-02-28T06:11:44;-1.40;99.90
38726;DHT22;24474;48.906;8.808;2023-02-28T06:14:19;-1.40;99.90
38726;DHT22;24474;48.906;8.808;2023-02-28T06:16:45;-1.40;99.90
38726;DHT22;24474;48.906;8.808;2023-02-28T06:19:10;-1.40;99.90
38726;DHT22;24474;48.906;8.808;2023-02-28T06:21:37;-1.40;99.90
38726;DHT22;24474;48.906;8.808;2023-02-28T06:24:03;-1.40;99.90
38726;DHT22;24474;48.906;8.808;2023-02-28T06:26:29;-1.40;99.90
38726;DHT22;24474;48.906;8.808;2023-02-28T06:28:59;-1.40;99.90
38726;DHT22;24474;48.906;8.808;2023-02-28T06:31:26;-1.40;99.90
38726;DHT22;24474;48.906;8.808;2023-02-28T06:33:51;-1.40;99.90
38726;DHT22;24474;48.906;8.808;2023-02-28T06:36:18;-1.40;99.90
38726;DHT22;24474;48.906;8.808;2023-02-28T06:38:44;-1.40;99.90
38726;DHT22;24474;48.906;8.808;2023-02-28T06:41:10;-1.30;99.90
38726;DHT22;24474;48.906;8.808;2023-02-28T06:43:39;-1.30;99.90
38726;DHT22;24474;48.906;8.808;2023-02-28T06:46:07;-1.30;99.90
38726;DHT22;24474;48.906;8.808;2023-02-28T06:48:34;-1.30;99.90
38726;DHT22;24474;48.906;8.808;2023-02-28T06:51:05;-1.30;99.90
38726;DHT22;24474;48.906;8.808;2023-02-28T06:53:31;-1.30;99.90
38726;DHT22;24474;48.906;8.808;2023-02-28T06:55:57;-1.30;99.90
38726;DHT22;24474;48.906;8.808;2023-02-28T06:58:23;-1.30;99.90
38726;DHT22;24474;48.906;8.808;2023-02-28T07:00:51;-1.30;99.90
38726;DHT22;24474;48.906;8.808;2023-02-28T07:03:17;-1.30;99.90
38726;DHT22;24474;48.906;8.808;2023-02-28T07:05:44;-1.30;99.90
38726;DHT22;24474;48.906;8.808;2023-02-28T07:08:11;-1.20;99.90
38726;DHT22;24474;48.906;8.808;2023-02-28T07:10:40;-1.20;99.90
38726;DHT22;24474;48.906;8.808;2023-02-28T07:13:07;-1.20;99.90
38726;DHT22;24474;48.906;8.808;2023-02-28T07:15:34;-1.20;99.90
38726;DHT22;24474;48.906;8.808;2023-02-28T07:17:59;-1.20;99.90
38726;DHT22;24474;48.906;8.808;2023-02-28T07:20:29;-1.20;99.90
38726;DHT22;24474;48.906;8.808;2023-02-28T07:22:55;-1.20;99.90
38726;DHT22;24474;48.906;8.808;2023-02-28T07:25:26;-1.10;99.90
38726;DHT22;24474;48.906;8.808;2023-02-28T07:27:51;-1.10;99.90
38726;DHT22;24474;48.906;8.808;2023-02-28T07:30:18;-1.10;99.90
38726;DHT22;24474;48.906;8.808;2023-02-28T07:32:45;-1.10;99.90
38726;DHT22;24474;48.906;8.808;2023-02-28T07:35:11;-1.00;99.90
38726;DHT22;24474;48.906;8.808;2023-02-28T07:37:38;-1.10;99.90
38726;DHT22;24474;48.906;8.808;2023-02-28T07:40:08;-1.00;99.90
38726;DHT22;24474;48.906;8.808;2023-02-28T07:42:39;-1.00;99.90
38726;DHT22;24474;48.906;8.808;2023-02-28T07:45:10;-1.00;99.90
38726;DHT22;24474;48.906;8.808;2023-02-28T07:47:41;-1.00;99.90
38726;DHT22;24474;48.906;8.808;2023-02-28T07:50:11;-1.00;99.90
38726;DHT22;24474;48.906;8.808;2023-02-28T07:52:38;-1.00;99.90
38726;DHT22;24474;48.906;8.808;2023-02-28T07:55:06;-1.00;99.90
38726;DHT22;24474;48.906;8.808;2023-02-28T07:57:32;-0.90;99.90
38726;DHT22;24474;48.906;8.808;2023-02-28T07:59:59;-0.90;99.90
38726;DHT22;24474;48.906;8.808;2023-02-28T08:02:26;-0.80;99.90
38726;DHT22;24474;48.906;8.808;2023-02-28T08:04:51;-0.80;99.90
38726;DHT22;24474;48.906;8.808;2023-02-28T08:07:20;-0.80;99.90
38726;DHT22;24474;48.906;8.808;2023-02-28T08:09:46;-0.70;99.90
38726;DHT22;24474;48.906;8.808;2023-02-28T08:12:12;-0.70;99.90
38726;DHT22;24474;48.906;8.808;2023-02-28T08:14:39;-0.70;99.90
38726;DHT22;24474;48.906;8.808;2023-02-28T08:17:05;-0.70;99.90
38726;DHT22;24474;48.906;8.808;2023-02-28T08:19:31;-0.70;99.90
38726;DHT22;24474;48.906;8.808;2023-02-28T08:21:57;-0.60;99.90
38726;DHT22;24474;48.906;8.808;2023-02-28T08:24:23;-0.70;99.90
38726;DHT22;24474;48.906;8.808;2023-02-28T08:26:49;-0.60;99.90
38726;DHT22;24474;48.906;8.808;2023-02-28T08:29:15;-0.60;99.90
38726;DHT22;24474;48.906;8.808;2023-02-28T08:31:41;-0.60;99.90
38726;DHT22;24474;48.906;8.808;2023-02-28T08:34:09;-0.60;99.90
38726;DHT22;24474;48.906;8.808;2023-02-28T08:36:34;-0.60;99.90
38726;DHT22;24474;48.906;8.808;2023-02-28T08:39:01;-0.60;99.90
38726;DHT22;24474;48.906;8.808;2023-02-28T08:41:27;-0.60;99.90
38726;DHT22;24474;48.906;8.808;2023-02-28T08:43:52;-0.50;99.90
38726;DHT22;24474;48.906;8.808;2023-02-28T08:46:19;-0.60;99.90
38726;DHT22;24474;48.906;8.808;2023-02-28T08:48:44;-0.50;99.90
38726;DHT22;24474;48.906;8.808;2023-02-28T08:51:15;-0.50;99.90
38726;DHT22;24474;48.906;8.808;2023-02-28T08:53:47;-0.50;99.90
38726;DHT22;24474;48.906;8.808;2023-02-28T08:56:17;-0.50;99.90
38726;DHT22;24474;48.906;8.808;2023-02-28T08:58:43;-0.50;99.90
38726;DHT22;24474;48.906;8.808;2023-02-28T09:01:13;-0.50;99.90
38726;DHT22;24474;48.906;8.808;2023-02-28T09:03:39;-0.40;99.90
38726;DHT22;24474;48.906;8.808;2023-02-28T09:06:07;-0.40;99.90
38726;DHT22;24474;48.906;8.808;2023-02-28T09:08:34;-0.40;99.90
38726;DHT22;24474;48.906;8.808;2023-02-28T09:11:00;-0.40;99.90
38726;DHT22;24474;48.906;8.808;2023-02-28T09:13:27;-0.30;99.90
38726;DHT22;24474;48.906;8.808;2023-02-28T09:15:53;-0.30;99.90
38726;DHT22;24474;48.906;8.808;2023-02-28T09:18:20;-0.30;99.90
38726;DHT22;24474;48.906;8.808;2023-02-28T09:20:46;-0.30;99.90
38726;DHT22;24474;48.906;8.808;2023-02-28T09:23:12;-0.20;99.90
38726;DHT22;24474;48.906;8.808;2023-02-28T09:25:38;-0.20;99.90
38726;DHT22;24474;48.906;8.808;2023-02-28T09:28:04;-0.20;99.90
38726;DHT22;24474;48.906;8.808;2023-02-28T09:30:30;-0.10;99.90
38726;DHT22;24474;48.906;8.808;2023-02-28T09:32:56;-0.10;99.90
38726;DHT22;24474;48.906;8.808;2023-02-28T09:35:23;0.00;99.90
38726;DHT22;24474;48.906;8.808;2023-02-28T09:37:50;-0.10;99.90
38726;DHT22;24474;48.906;8.808;2023-02-28T09:40:18;0.00;99.90
38726;DHT22;24474;48.906;8.808;2023-02-28T09:42:46;0.00;99.90
38726;DHT22;24474;48.906;8.808;2023-02-28T09:45:37;0.10;99.90
38726;DHT22;24474;48.906;8.808;2023-02-28T09:48:17;0.10;99.90
38726;DHT22;24474;48.906;8.808;2023-02-28T09:51:20;0.20;99.90
38726;DHT22;24474;48.906;8.808;2023-02-28T09:53:50;0.20;99.90
38726;DHT22;24474;48.906;8.808;2023-02-28T09:56:25;0.30;99.90
38726;DHT22;24474;48.906;8.808;2023-02-28T10:04:35;0.50;99.90
38726;DHT22;24474;48.906;8.808;2023-02-28T10:10:27;0.60;99.90
38726;DHT22;24474;48.906;8.808;2023-02-28T10:12:58;0.50;99.90
38726;DHT22;24474;48.906;8.808;2023-02-28T10:15:29;0.60;99.90
38726;DHT22;24474;48.906;8.808;2023-02-28T10:18:00;0.60;99.90
38726;DHT22;24474;48.906;8.808;2023-02-28T10:20:34;0.60;99.90
38726;DHT22;24474;48.906;8.808;2023-02-28T10:23:27;0.60;99.90
38726;DHT22;24474;48.906;8.808;2023-02-28T10:26:09;0.70;99.90
38726;DHT22;24474;48.906;8.808;2023-02-28T10:28:38;0.70;99.90
38726;DHT22;24474;48.906;8.808;2023-02-28T10:31:04;0.70;99.90
38726;DHT22;24474;48.906;8.808;2023-02-28T10:33:32;0.80;99.90
38726;DHT22;24474;48.906;8.808;2023-02-28T10:35:59;0.90;99.90
38726;DHT22;24474;48.906;8.808;2023-02-28T10:38:28;0.90;99.90
38726;DHT22;24474;48.906;8.808;2023-02-28T10:41:10;0.90;99.90
38726;DHT22;24474;48.906;8.808;2023-02-28T10:43:37;1.00;99.90
38726;DHT22;24474;48.906;8.808;2023-02-28T10:46:15;1.00;99.90
38726;DHT22;24474;48.906;8.808;2023-02-28T10:49:04;1.00;99.90
38726;DHT22;24474;48.906;8.808;2023-02-28T10:51:40;1.00;99.90
38726;DHT22;24474;48.906;8.808;2023-02-28T10:54:16;1.10;99.90
38726;DHT22;24474;48.906;8.808;2023-02-28T10:56:45;1.20;99.90
38726;DHT22;24474;48.906;8.808;2023-02-28T10:59:26;1.20;99.90
38726;DHT22;24474;48.906;8.808;2023-02-28T11:01:54;1.20;99.90
38726;DHT22;24474;48.906;8.808;2023-02-28T11:07:02;1.30;99.90
38726;DHT22;24474;48.906;8.808;2023-02-28T11:09:39;1.40;99.90
38726;DHT22;24474;48.906;8.808;2023-02-28T11:12:17;1.40;99.90
38726;DHT22;24474;48.906;8.808;2023-02-28T11:14:51;1.50;99.90
38726;DHT22;24474;48.906;8.808;2023-02-28T11:17:28;1.50;99.90
38726;DHT22;24474;48.906;8.808;2023-02-28T11:20:05;1.50;99.90
38726;DHT22;24474;48.906;8.808;2023-02-28T11:22:38;1.50;99.90
38726;DHT22;24474;48.906;8.808;2023-02-28T11:25:35;1.60;99.90
38726;DHT22;24474;48.906;8.808;2023-02-28T11:28:23;1.80;99.90
38726;DHT22;24474;48.906;8.808;2023-02-28T11:33:53;2.00;99.90
38726;DHT22;24474;48.906;8.808;2023-02-28T11:36:22;2.20;99.90
38726;DHT22;24474;48.906;8.808;2023-02-28T11:38:55;2.20;99.90
38726;DHT22;24474;48.906;8.808;2023-02-28T11:41:35;2.20;99.90
38726;DHT22;24474;48.906;8.808;2023-02-28T11:47:42;2.20;99.90
38726;DHT22;24474;48.906;8.808;2023-02-28T11:50:39;2.30;99.90
38726;DHT22;24474;48.906;8.808;2023-02-28T11:56:18;2.20;99.90
38726;DHT22;24474;48.906;8.808;2023-02-28T12:10:04;2.20;99.90
38726;DHT22;24474;48.906;8.808;2023-02-28T12:15:23;2.10;99.90
38726;DHT22;24474;48.906;8.808;2023-02-28T12:21:05;2.10;99.90
38726;DHT22;24474;48.906;8.808;2023-02-28T12:24:59;2.10;99.90
38726;DHT22;24474;48.906;8.808;2023-02-28T12:27:10;2.10;99.90
38726;DHT22;24474;48.906;8.808;2023-02-28T12:29:57;2.10;99.90
38726;DHT22;24474;48.906;8.808;2023-02-28T12:32:26;2.20;99.90
38726;DHT22;24474;48.906;8.808;2023-02-28T12:35:25;2.30;99.90
38726;DHT22;24474;48.906;8.808;2023-02-28T12:38:04;2.40;99.90
38726;DHT22;24474;48.906;8.808;2023-02-28T12:41:00;2.60;99.90
38726;DHT22;24474;48.906;8.808;2023-02-28T12:44:07;2.70;99.90
38726;DHT22;24474;48.906;8.808;2023-02-28T12:46:35;2.90;99.90
38726;DHT22;24474;48.906;8.808;2023-02-28T12:49:14;3.00;99.90
38726;DHT22;24474;48.906;8.808;2023-02-28T12:51:45;3.10;99.90
38726;DHT22;24474;48.906;8.808;2023-02-28T12:54:30;3.10;99.90
38726;DHT22;24474;48.906;8.808;2023-02-28T12:59:53;3.30;99.90
38726;DHT22;24474;48.906;8.808;2023-02-28T13:05:32;3.40;99.90
38726;DHT22;24474;48.906;8.808;2023-02-28T13:10:58;3.50;99.90
38726;DHT22;24474;48.906;8.808;2023-02-28T13:13:26;3.50;99.90
38726;DHT22;24474;48.906;8.808;2023-02-28T13:16:09;3.50;99.90
38726;DHT22;24474;48.906;8.808;2023-02-28T13:18:41;3.60;99.90
38726;DHT22;24474;48.906;8.808;2023-02-28T13:21:27;3.60;99.90
38726;DHT22;24474;48.906;8.808;2023-02-28T13:23:59;3.60;99.90
38726;DHT22;24474;48.906;8.808;2023-02-28T13:40:26;3.40;99.90
38726;DHT22;24474;48.906;8.808;2023-02-28T13:42:54;3.50;99.90
38726;DHT22;24474;48.906;8.808;2023-02-28T13:45:30;3.60;99.90
38726;DHT22;24474;48.906;8.808;2023-02-28T13:48:04;3.70;99.90
38726;DHT22;24474;48.906;8.808;2023-02-28T13:50:36;3.80;99.90
38726;DHT22;24474;48.906;8.808;2023-02-28T13:56:03;3.80;99.90
38726;DHT22;24474;48.906;8.808;2023-02-28T13:58:55;3.80;99.90
38726;DHT22;24474;48.906;8.808;2023-02-28T14:04:44;3.90;99.90
38726;DHT22;24474;48.906;8.808;2023-02-28T14:07:25;3.90;99.90
38726;DHT22;24474;48.906;8.808;2023-02-28T14:10:06;3.90;99.90
38726;DHT22;24474;48.906;8.808;2023-02-28T14:13:12;3.90;99.90
38726;DHT22;24474;48.906;8.808;2023-02-28T14:18:34;3.90;99.90
38726;DHT22;24474;48.906;8.808;2023-02-28T14:21:21;4.00;99.90
38726;DHT22;24474;48.906;8.808;2023-02-28T14:35:59;3.90;99.90
38726;DHT22;24474;48.906;8.808;2023-02-28T14:38:36;4.00;99.90
38726;DHT22;24474;48.906;8.808;2023-02-28T14:41:16;4.00;99.90
38726;DHT22;24474;48.906;8.808;2023-02-28T14:43:53;4.00;99.90
38726;DHT22;24474;48.906;8.808;2023-02-28T14:46:23;4.10;99.90
38726;DHT22;24474;48.906;8.808;2023-02-28T14:48:52;4.10;99.90
38726;DHT22;24474;48.906;8.808;2023-02-28T14:51:21;4.10;99.90
38726;DHT22;24474;48.906;8.808;2023-02-28T14:53:56;4.10;99.90
38726;DHT22;24474;48.906;8.808;2023-02-28T14:56:36;4.00;99.90
38726;DHT22;24474;48.906;8.808;2023-02-28T14:59:04;4.00;99.90
38726;DHT22;24474;48.906;8.808;2023-02-28T15:01:31;4.00;99.90
38726;DHT22;24474;48.906;8.808;2023-02-28T15:04:18;4.00;99.90
38726;DHT22;24474;48.906;8.808;2023-02-28T15:07:14;4.00;99.90
38726;DHT22;24474;48.906;8.808;2023-02-28T15:09:41;4.00;99.90
38726;DHT22;24474;48.906;8.808;2023-02-28T15:12:07;4.00;99.90
38726;DHT22;24474;48.906;8.808;2023-02-28T15:14:36;4.00;99.90
38726;DHT22;24474;48.906;8.808;2023-02-28T15:17:13;4.10;99.90
38726;DHT22;24474;48.906;8.808;2023-02-28T15:19:42;4.10;99.90
38726;DHT22;24474;48.906;8.808;2023-02-28T15:22:20;4.10;99.90
38726;DHT22;24474;48.906;8.808;2023-02-28T15:24:54;4.10;99.90
38726;DHT22;24474;48.906;8.808;2023-02-28T15:27:27;4.10;99.90
38726;DHT22;24474;48.906;8.808;2023-02-28T15:30:05;4.00;99.90
38726;DHT22;24474;48.906;8.808;2023-02-28T15:32:38;4.00;99.90
38726;DHT22;24474;48.906;8.808;2023-02-28T15:35:27;4.00;99.90
38726;DHT22;24474;48.906;8.808;2023-02-28T15:38:32;4.00;99.90
38726;DHT22;24474;48.906;8.808;2023-02-28T15:40:59;4.00;99.90
38726;DHT22;24474;48.906;8.808;2023-02-28T15:43:30;4.00;99.90
38726;DHT22;24474;48.906;8.808;2023-02-28T15:46:03;4.00;99.90
38726;DHT22;24474;48.906;8.808;2023-02-28T15:48:35;4.00;99.90
38726;DHT22;24474;48.906;8.808;2023-02-28T15:53:39;3.90;99.90
38726;DHT22;24474;48.906;8.808;2023-02-28T15:56:27;3.90;99.90
38726;DHT22;24474;48.906;8.808;2023-02-28T15:58:56;3.90;99.90
38726;DHT22;24474;48.906;8.808;2023-02-28T16:01:41;3.90;99.90
38726;DHT22;24474;48.906;8.808;2023-02-28T16:04:19;3.90;99.90
38726;DHT22;24474;48.906;8.808;2023-02-28T16:07:05;3.80;99.90
38726;DHT22;24474;48.906;8.808;2023-02-28T16:09:34;3.80;99.90
38726;DHT22;24474;48.906;8.808;2023-02-28T16:12:01;3.80;99.90
38726;DHT22;24474;48.906;8.808;2023-02-28T16:14:30;3.80;99.90
38726;DHT22;24474;48.906;8.808;2023-02-28T16:17:04;3.80;99.90
38726;DHT22;24474;48.906;8.808;2023-02-28T16:19:30;3.80;99.90
38726;DHT22;24474;48.906;8.808;2023-02-28T16:21:56;3.70;99.90
38726;DHT22;24474;48.906;8.808;2023-02-28T16:24:22;3.70;99.90
38726;DHT22;24474;48.906;8.808;2023-02-28T16:26:51;3.70;99.90
38726;DHT22;24474;48.906;8.808;2023-02-28T16:29:33;3.70;99.90
38726;DHT22;24474;48.906;8.808;2023-02-28T16:32:01;3.60;99.90
38726;DHT22;24474;48.906;8.808;2023-02-28T16:34:29;3.60;99.90
38726;DHT22;24474;48.906;8.808;2023-02-28T16:36:54;3.60;99.90
38726;DHT22;24474;48.906;8.808;2023-02-28T16:39:20;3.60;99.90
38726;DHT22;24474;48.906;8.808;2023-02-28T16:41:47;3.50;99.90
38726;DHT22;24474;48.906;8.808;2023-02-28T16:44:31;3.50;99.90
38726;DHT22;24474;48.906;8.808;2023-02-28T16:47:00;3.50;99.90
38726;DHT22;24474;48.906;8.808;2023-02-28T16:49:28;3.50;99.90
38726;DHT22;24474;48.906;8.808;2023-02-28T16:51:54;3.40;99.90
38726;DHT22;24474;48.906;8.808;2023-02-28T16:54:20;3.40;99.90
38726;DHT22;24474;48.906;8.808;2023-02-28T16:56:47;3.40;99.90
38726;DHT22;24474;48.906;8.808;2023-02-28T16:59:17;3.30;99.90
38726;DHT22;24474;48.906;8.808;2023-02-28T17:01:45;3.30;99.90
38726;DHT22;24474;48.906;8.808;2023-02-28T17:04:11;3.30;99.90
38726;DHT22;24474;48.906;8.808;2023-02-28T17:06:39;3.30;99.90
38726;DHT22;24474;48.906;8.808;2023-02-28T17:09:16;3.20;99.90
38726;DHT22;24474;48.906;8.808;2023-02-28T17:11:43;3.20;99.90
38726;DHT22;24474;48.906;8.808;2023-02-28T17:14:10;3.10;99.90
38726;DHT22;24474;48.906;8.808;2023-02-28T17:16:37;3.10;99.90
38726;DHT22;24474;48.906;8.808;2023-02-28T17:19:12;3.10;99.90
38726;DHT22;24474;48.906;8.808;2023-02-28T17:21:38;3.00;99.90
38726;DHT22;24474;48.906;8.808;2023-02-28T17:24:04;3.00;99.90
38726;DHT22;24474;48.906;8.808;2023-02-28T17:26:30;3.00;99.90
38726;DHT22;24474;48.906;8.808;2023-02-28T17:28:57;3.00;99.90
38726;DHT22;24474;48.906;8.808;2023-02-28T17:31:23;2.90;99.90
38726;DHT22;24474;48.906;8.808;2023-02-28T17:33:49;2.90;99.90
38726;DHT22;24474;48.906;8.808;2023-02-28T17:36:24;2.80;99.90
38726;DHT22;24474;48.906;8.808;2023-02-28T17:38:53;2.80;99.90
38726;DHT22;24474;48.906;8.808;2023-02-28T17:41:20;2.80;99.90
38726;DHT22;24474;48.906;8.808;2023-02-28T17:43:46;2.80;99.90
38726;DHT22;24474;48.906;8.808;2023-02-28T17:46:18;2.70;99.90
38726;DHT22;24474;48.906;8.808;2023-02-28T17:48:48;2.70;99.90
38726;DHT22;24474;48.906;8.808;2023-02-28T17:51:14;2.70;99.90
38726;DHT22;24474;48.906;8.808;2023-02-28T17:53:40;2.70;99.90
38726;DHT22;24474;48.906;8.808;2023-02-28T17:58:43;2.60;99.90
38726;DHT22;24474;48.906;8.808;2023-02-28T18:01:08;2.50;99.90
38726;DHT22;24474;48.906;8.808;2023-02-28T18:03:35;2.50;99.90
38726;DHT22;24474;48.906;8.808;2023-02-28T18:06:02;2.50;99.90
38726;DHT22;24474;48.906;8.808;2023-02-28T18:08:28;2.40;99.90
38726;DHT22;24474;48.906;8.808;2023-02-28T18:10:54;2.30;99.90
38726;DHT22;24474;48.906;8.808;2023-02-28T18:13:20;2.30;99.90